createdAt,value
2023-01-03T00:02:01.193Z,27.50
2023-01-03T00:04:29.383Z,27.40
2023-01-03T00:06:57.827Z,27.40
2023-01-03T00:09:26.319Z,27.40
2023-01-03T00:11:55.625Z,27.30
2023-01-03T00:14:26.801Z,27.10
2023-01-03T00:16:57.125Z,27.00
2023-01-03T00:19:27.031Z,26.80
2023-01-03T00:21:55.579Z,26.90
2023-01-03T00:24:24.164Z,26.80
2023-01-03T00:26:52.814Z,26.70
2023-01-03T00:29:21.177Z,26.50
2023-01-03T00:31:49.523Z,26.50
2023-01-03T00:34:17.937Z,26.40
2023-01-03T00:36:46.323Z,26.30
2023-01-03T00:39:15.112Z,26.40
2023-01-03T00:41:43.572Z,26.40
2023-01-03T00:44:13.267Z,26.30
2023-01-03T00:46:41.848Z,26.40
2023-01-03T00:49:10.777Z,26.40
2023-01-03T00:51:41.320Z,26.30
2023-01-03T00:54:10.957Z,26.20
2023-01-03T00:56:41.826Z,26.20
2023-01-03T00:59:10.868Z,26.20
2023-01-03T01:01:47.544Z,26.10
2023-01-03T01:04:25.869Z,26.00
2023-01-03T01:06:57.292Z,26.00
2023-01-03T01:09:36.966Z,26.00
2023-01-03T01:12:06.982Z,26.00
2023-01-03T01:14:35.603Z,25.90
2023-01-03T01:17:08.589Z,25.80
2023-01-03T01:19:39.889Z,25.80
2023-01-03T01:22:08.775Z,25.80
2023-01-03T01:24:37.370Z,25.80
2023-01-03T01:27:05.756Z,25.80
2023-01-03T01:29:33.947Z,25.80
2023-01-03T01:32:02.103Z,25.80
2023-01-03T01:34:32.813Z,25.80
2023-01-03T01:37:01.256Z,25.80
2023-01-03T01:39:30.659Z,25.80
2023-01-03T01:42:02.178Z,25.80
2023-01-03T01:44:54.311Z,25.80
2023-01-03T01:47:34.690Z,25.70
2023-01-03T01:50:27.690Z,25.70
2023-01-03T01:53:16.063Z,25.70
2023-01-03T01:55:53.188Z,25.70
2023-01-03T01:58:23.853Z,25.70
2023-01-03T02:00:52.383Z,25.60
2023-01-03T02:03:20.773Z,25.60
2023-01-03T02:05:53.099Z,25.60
2023-01-03T02:08:21.820Z,25.60
2023-01-03T02:11:02.338Z,25.70
2023-01-03T02:13:53.197Z,25.60
2023-01-03T02:17:00.654Z,25.60
2023-01-03T02:19:59.598Z,25.50
2023-01-03T02:23:07.896Z,25.60
2023-01-03T02:25:57.147Z,25.50
2023-01-03T02:28:46.622Z,25.50
2023-01-03T02:31:44.046Z,25.40
2023-01-03T02:34:35.928Z,25.40
2023-01-03T02:37:35.570Z,25.40
2023-01-03T02:40:20.593Z,25.30
2023-01-03T02:43:03.968Z,25.30
2023-01-03T02:45:47.595Z,25.30
2023-01-03T02:48:25.123Z,25.30
2023-01-03T02:50:57.209Z,25.30
2023-01-03T02:53:32.886Z,25.40
2023-01-03T02:56:06.645Z,25.30
2023-01-03T02:58:38.527Z,25.30
2023-01-03T03:01:09.371Z,25.30
2023-01-03T03:03:39.489Z,25.30
2023-01-03T03:06:20.217Z,25.30
2023-01-03T03:08:48.881Z,25.30
2023-01-03T03:11:17.476Z,25.30
2023-01-03T03:13:51.533Z,25.30
2023-01-03T03:16:45.100Z,25.20
2023-01-03T03:19:27.255Z,25.30
2023-01-03T03:21:55.855Z,25.20
2023-01-03T03:24:29.806Z,25.20
2023-01-03T03:27:01.166Z,25.20
2023-01-03T03:29:30.452Z,25.20
2023-01-03T03:31:58.710Z,25.20
2023-01-03T03:34:31.881Z,25.20
2023-01-03T03:37:20.098Z,25.30
2023-01-03T03:39:49.234Z,25.20
2023-01-03T03:42:46.020Z,25.20
2023-01-03T03:45:39.682Z,25.20
2023-01-03T03:48:23.242Z,25.20
2023-01-03T03:51:24.449Z,25.20
2023-01-03T03:53:53.368Z,25.10
2023-01-03T03:56:27.452Z,25.20
2023-01-03T03:59:01.204Z,25.20
2023-01-03T04:01:30.966Z,25.10
2023-01-03T04:04:04.179Z,25.10
2023-01-03T04:06:37.629Z,25.00
2023-01-03T04:09:06.142Z,25.00
2023-01-03T04:11:34.205Z,24.90
2023-01-03T04:16:54.851Z,24.90
2023-01-03T04:19:23.164Z,24.90
2023-01-03T04:21:51.352Z,24.90
2023-01-03T04:24:19.561Z,24.90
2023-01-03T04:26:49.183Z,24.90
2023-01-03T04:29:17.387Z,24.90
2023-01-03T04:31:45.661Z,24.90
2023-01-03T04:34:13.942Z,24.90
2023-01-03T04:36:42.293Z,24.90
2023-01-03T04:39:10.537Z,24.90
2023-01-03T04:41:38.875Z,24.90
2023-01-03T04:44:07.212Z,24.90
2023-01-03T04:46:38.774Z,25.00
2023-01-03T04:49:08.846Z,24.90
2023-01-03T04:51:37.899Z,25.00
2023-01-03T04:54:07.168Z,25.00
2023-01-03T04:56:37.365Z,25.00
2023-01-03T04:59:06.662Z,25.00
2023-01-03T05:01:35.230Z,25.10
2023-01-03T05:04:03.608Z,25.10
2023-01-03T05:06:32.133Z,25.10
2023-01-03T05:09:00.485Z,25.10
2023-01-03T05:11:28.685Z,25.00
2023-01-03T05:13:56.911Z,25.00
2023-01-03T05:16:25.261Z,25.00
2023-01-03T05:18:53.605Z,25.10
2023-01-03T05:21:23.044Z,25.00
2023-01-03T05:23:51.141Z,25.00
2023-01-03T05:26:21.414Z,25.00
2023-01-03T05:28:53.256Z,25.00
2023-01-03T05:31:21.807Z,25.10
2023-01-03T05:33:50.132Z,25.10
2023-01-03T05:36:18.415Z,25.10
2023-01-03T05:38:46.795Z,25.10
2023-01-03T05:41:15.511Z,25.10
2023-01-03T05:43:43.833Z,25.10
2023-01-03T05:46:12.339Z,25.20
2023-01-03T05:48:41.742Z,25.20
2023-01-03T05:51:10.021Z,25.20
2023-01-03T05:53:38.338Z,25.20
2023-01-03T05:56:07.858Z,25.20
2023-01-03T05:58:36.159Z,25.20
2023-01-03T06:01:11.777Z,25.20
2023-01-03T06:03:40.346Z,25.20
2023-01-03T06:06:08.990Z,25.20
2023-01-03T06:08:37.435Z,25.30
2023-01-03T06:11:14.609Z,25.20
2023-01-03T06:13:43.156Z,25.20
2023-01-03T06:16:15.653Z,25.20
2023-01-03T06:18:46.053Z,25.10
2023-01-03T06:21:14.232Z,25.10
2023-01-03T06:23:42.551Z,25.20
2023-01-03T06:26:10.729Z,25.20
2023-01-03T06:28:39.061Z,25.20
2023-01-03T06:31:07.520Z,25.20
2023-01-03T06:33:36.291Z,25.10
2023-01-03T06:36:10.451Z,25.10
2023-01-03T06:38:39.218Z,25.10
2023-01-03T06:41:07.443Z,25.10
2023-01-03T06:43:35.993Z,25.00
2023-01-03T06:46:04.331Z,25.00
2023-01-03T06:48:32.579Z,25.00
2023-01-03T06:51:00.815Z,24.90
2023-01-03T06:53:38.844Z,24.80
2023-01-03T06:56:08.056Z,24.80
2023-01-03T06:58:37.214Z,24.80
2023-01-03T07:01:07.012Z,24.80
2023-01-03T07:03:35.599Z,24.80
2023-01-03T07:06:04.047Z,24.70
2023-01-03T07:08:32.480Z,24.70
2023-01-03T07:11:00.713Z,24.70
2023-01-03T07:13:29.111Z,24.70
2023-01-03T07:15:57.440Z,24.60
2023-01-03T07:18:25.717Z,24.50
2023-01-03T07:20:54.638Z,24.60
2023-01-03T07:23:22.713Z,24.60
2023-01-03T07:25:54.653Z,24.70
2023-01-03T07:28:22.879Z,24.70
2023-01-03T07:30:51.428Z,24.70
2023-01-03T07:33:20.121Z,24.80
2023-01-03T07:35:48.186Z,24.80
2023-01-03T07:38:16.525Z,24.80
2023-01-03T07:40:44.900Z,24.90
2023-01-03T07:43:13.140Z,25.00
2023-01-03T07:45:47.096Z,25.00
2023-01-03T07:48:16.378Z,25.10
2023-01-03T07:50:44.646Z,25.10
2023-01-03T07:53:12.954Z,25.10
2023-01-03T07:55:41.183Z,25.20
2023-01-03T07:58:09.362Z,25.30
2023-01-03T08:00:37.581Z,25.30
2023-01-03T08:03:10.812Z,25.30
2023-01-03T08:05:39.619Z,25.30
2023-01-03T08:08:08.114Z,25.40
2023-01-03T08:10:36.591Z,25.40
2023-01-03T08:13:05.600Z,25.40
2023-01-03T08:15:33.914Z,25.50
2023-01-03T08:18:02.296Z,25.50
2023-01-03T08:20:30.552Z,25.60
2023-01-03T08:23:00.533Z,25.70
2023-01-03T08:25:28.788Z,25.70
2023-01-03T08:28:00.910Z,25.70
2023-01-03T08:30:28.940Z,25.80
2023-01-03T08:32:58.894Z,25.90
2023-01-03T08:35:30.550Z,26.00
2023-01-03T08:38:01.162Z,26.10
2023-01-03T08:40:30.554Z,26.10
2023-01-03T08:42:58.616Z,26.20
2023-01-03T08:45:27.922Z,26.20
2023-01-03T08:47:56.288Z,26.30
2023-01-03T08:50:25.130Z,26.40
2023-01-03T08:52:54.388Z,26.40
2023-01-03T08:55:25.514Z,26.50
2023-01-03T08:57:54.328Z,26.50
2023-01-03T09:00:22.640Z,26.60
2023-01-03T09:02:50.931Z,26.60
2023-01-03T09:05:19.532Z,26.70
2023-01-03T09:07:47.949Z,26.70
2023-01-03T09:10:16.332Z,26.80
2023-01-03T09:12:44.557Z,26.80
2023-01-03T09:15:12.857Z,26.90
2023-01-03T09:17:41.178Z,27.00
2023-01-03T09:20:10.092Z,27.00
2023-01-03T09:22:38.506Z,27.10
2023-01-03T09:25:07.165Z,27.10
2023-01-03T09:27:35.532Z,27.20
2023-01-03T09:30:04.458Z,27.30
2023-01-03T09:32:32.748Z,27.40
2023-01-03T09:35:01.053Z,27.40
2023-01-03T09:37:29.302Z,27.40
2023-01-03T09:39:57.623Z,27.50
2023-01-03T09:42:28.413Z,27.50
2023-01-03T09:44:56.813Z,27.60
2023-01-03T09:47:26.558Z,27.60
2023-01-03T09:50:27.720Z,27.70
2023-01-03T09:52:46.036Z,27.70
2023-01-03T09:55:25.208Z,27.70
2023-01-03T09:57:53.613Z,27.60
2023-01-03T10:00:43.941Z,27.70
2023-01-03T10:03:21.748Z,27.70
2023-01-03T10:06:24.145Z,27.70
2023-01-03T10:09:01.975Z,27.80
2023-01-03T10:11:44.041Z,27.90
2023-01-03T10:14:18.179Z,28.00
2023-01-03T10:17:17.180Z,28.00
2023-01-03T10:20:08.993Z,28.10
2023-01-03T10:22:38.351Z,28.10
2023-01-03T10:25:06.714Z,28.30
2023-01-03T10:27:47.636Z,28.40
2023-01-03T10:30:41.190Z,28.40
2023-01-03T10:33:43.869Z,28.50
2023-01-03T10:36:13.080Z,28.50
2023-01-03T10:38:47.992Z,28.60
2023-01-03T10:41:47.340Z,28.70
2023-01-03T10:44:33.261Z,28.80
2023-01-03T10:47:11.477Z,28.80
2023-01-03T10:49:47.500Z,28.90
2023-01-03T10:52:21.388Z,28.90
2023-01-03T10:54:52.806Z,29.00
2023-01-03T10:57:46.968Z,29.10
2023-01-03T11:00:38.649Z,29.20
2023-01-03T11:03:17.235Z,29.20
2023-01-03T11:06:07.970Z,29.30
2023-01-03T11:08:42.170Z,29.30
2023-01-03T11:11:32.351Z,29.40
2023-01-03T11:14:26.593Z,29.40
2023-01-03T11:16:58.665Z,29.50
2023-01-03T11:19:29.162Z,29.60
2023-01-03T11:22:37.546Z,29.60
2023-01-03T11:25:18.573Z,29.50
2023-01-03T11:28:16.464Z,29.70
2023-01-03T11:31:00.595Z,29.70
2023-01-03T11:33:35.088Z,29.70
2023-01-03T11:36:21.703Z,29.80
2023-01-03T11:39:22.772Z,30.00
2023-01-03T11:42:02.361Z,30.10
2023-01-03T11:44:48.413Z,30.00
2023-01-03T11:47:21.865Z,30.00
2023-01-03T11:50:23.659Z,30.00
2023-01-03T11:53:02.471Z,30.20
2023-01-03T11:55:58.826Z,30.30
2023-01-03T11:58:27.061Z,30.20
2023-01-03T12:01:12.664Z,30.20
2023-01-03T12:04:22.278Z,30.20
2023-01-03T12:07:14.331Z,30.20
2023-01-03T12:10:17.169Z,30.40
2023-01-03T12:13:01.660Z,30.40
2023-01-03T12:15:32.670Z,30.40
2023-01-03T12:18:08.673Z,30.30
2023-01-03T12:20:48.985Z,30.30
2023-01-03T12:23:46.224Z,30.40
2023-01-03T12:26:16.270Z,30.50
2023-01-03T12:29:06.852Z,30.50
2023-01-03T12:31:39.928Z,30.50
2023-01-03T12:34:26.769Z,30.60
2023-01-03T12:37:16.573Z,30.60
2023-01-03T12:39:47.869Z,30.60
2023-01-03T12:42:24.415Z,30.70
2023-01-03T12:45:23.542Z,30.40
2023-01-03T12:48:29.030Z,30.50
2023-01-03T12:50:57.316Z,30.70
2023-01-03T12:53:30.673Z,30.80
2023-01-03T12:56:29.629Z,30.90
2023-01-03T12:59:36.983Z,30.90
2023-01-03T13:02:46.333Z,31.10
2023-01-03T13:05:18.132Z,31.20
2023-01-03T13:07:54.026Z,31.20
2023-01-03T13:10:28.163Z,30.90
2023-01-03T13:12:56.851Z,31.10
2023-01-03T13:15:37.214Z,30.90
2023-01-03T13:18:23.906Z,31.10
2023-01-03T13:20:53.851Z,30.90
2023-01-03T13:23:37.415Z,31.00
2023-01-03T13:26:05.987Z,31.00
2023-01-03T13:28:35.396Z,30.90
2023-01-03T13:31:15.923Z,31.10
2023-01-03T13:34:12.354Z,31.20
2023-01-03T13:37:08.272Z,30.90
2023-01-03T13:39:48.847Z,30.60
2023-01-03T13:42:40.735Z,30.90
2023-01-03T13:45:12.029Z,31.00
2023-01-03T13:47:52.102Z,31.10
2023-01-03T13:50:28.509Z,31.10
2023-01-03T13:53:02.627Z,31.30
2023-01-03T13:55:41.192Z,30.70
2023-01-03T13:58:46.557Z,30.70
2023-01-03T14:01:41.278Z,30.50
2023-01-03T14:04:40.827Z,30.80
2023-01-03T14:07:43.152Z,30.90
2023-01-03T14:10:17.212Z,31.10
2023-01-03T14:13:18.182Z,31.20
2023-01-03T14:15:47.989Z,31.30
2023-01-03T14:18:22.130Z,31.60
2023-01-03T14:20:53.387Z,31.50
2023-01-03T14:23:58.517Z,31.60
2023-01-03T14:26:18.518Z,31.60
2023-01-03T14:28:52.334Z,31.80
2023-01-03T14:31:28.255Z,31.70
2023-01-03T14:34:04.060Z,31.70
2023-01-03T14:36:32.440Z,31.60
2023-01-03T14:39:01.899Z,31.40
2023-01-03T14:41:34.472Z,31.50
2023-01-03T14:44:17.016Z,31.50
2023-01-03T14:47:00.478Z,31.50
2023-01-03T14:49:50.196Z,31.50
2023-01-03T14:52:33.748Z,31.40
2023-01-03T14:55:09.323Z,31.60
2023-01-03T14:57:39.708Z,31.50
2023-01-03T15:00:17.631Z,31.70
2023-01-03T15:02:46.842Z,32.00
2023-01-03T15:05:37.177Z,32.20
2023-01-03T15:08:13.247Z,32.30
2023-01-03T15:10:52.547Z,32.30
2023-01-03T15:13:36.543Z,32.00
2023-01-03T15:16:08.682Z,31.80
2023-01-03T15:18:39.855Z,31.90
2023-01-03T15:21:08.472Z,31.90
2023-01-03T15:23:48.292Z,31.70
2023-01-03T15:26:43.532Z,32.10
2023-01-03T15:29:16.740Z,32.10
2023-01-03T15:32:01.349Z,32.30
2023-01-03T15:34:29.808Z,32.60
2023-01-03T18:28:25.895Z,29.40
2023-01-03T18:30:56.073Z,29.50
2023-01-03T18:33:25.130Z,29.40
2023-01-03T18:35:54.424Z,29.30
2023-01-03T18:38:29.968Z,29.20
2023-01-03T18:41:04.413Z,29.10
2023-01-03T18:43:34.389Z,29.00
2023-01-03T18:46:02.767Z,28.90
2023-01-03T18:48:30.883Z,28.90
2023-01-03T18:51:00.069Z,28.80
2023-01-03T18:53:31.347Z,28.80
2023-01-03T18:56:00.880Z,28.80
2023-01-03T18:58:31.767Z,28.80
2023-01-03T19:01:00.098Z,28.80
2023-01-03T19:03:31.228Z,28.70
2023-01-03T19:06:01.529Z,28.80
2023-01-03T19:08:34.075Z,28.70
2023-01-03T19:11:09.019Z,28.70
2023-01-03T19:13:40.355Z,28.70
2023-01-03T19:16:09.028Z,28.50
2023-01-03T19:18:37.281Z,28.50
2023-01-03T19:21:05.836Z,28.60
2023-01-03T19:23:34.057Z,28.60
2023-01-03T19:26:02.309Z,28.50
2023-01-03T19:28:30.649Z,28.50
2023-01-03T19:30:59.095Z,28.50
2023-01-03T19:33:27.327Z,28.50
2023-01-03T19:35:55.722Z,28.40
2023-01-03T19:38:23.932Z,28.40
2023-01-03T19:40:52.217Z,28.50
2023-01-03T19:43:22.903Z,28.50
2023-01-03T19:45:51.191Z,28.50
2023-01-03T19:48:24.447Z,28.50
2023-01-03T19:50:53.266Z,28.50
2023-01-03T19:53:21.693Z,28.50
2023-01-03T19:55:51.706Z,28.50
2023-01-03T19:58:30.714Z,28.50
2023-01-03T20:01:00.706Z,28.50
2023-01-03T20:03:35.523Z,28.50
2023-01-03T20:06:04.063Z,28.50
2023-01-03T20:08:41.351Z,28.50
2023-01-03T20:11:21.355Z,28.50
2023-01-03T20:13:50.287Z,28.50
2023-01-03T20:16:18.550Z,28.50
2023-01-03T20:18:46.860Z,28.50
2023-01-03T20:21:25.063Z,28.40
2023-01-03T20:24:02.719Z,28.40
2023-01-03T20:26:34.442Z,28.40
2023-01-03T20:29:02.811Z,28.40
2023-01-03T20:31:31.044Z,28.30
2023-01-03T20:33:59.486Z,28.30
2023-01-03T20:36:35.212Z,28.30
2023-01-03T20:39:03.996Z,28.30
2023-01-03T20:41:32.208Z,28.30
2023-01-03T20:44:00.509Z,28.30
2023-01-03T20:46:30.331Z,28.30
2023-01-03T20:49:01.879Z,28.40
2023-01-03T20:51:30.321Z,28.30
2023-01-03T20:53:58.544Z,28.30
2023-01-03T20:56:27.248Z,28.30
2023-01-03T20:58:55.656Z,28.30
2023-01-03T21:01:24.018Z,28.30
2023-01-03T21:03:52.372Z,28.30
2023-01-03T21:06:26.988Z,28.30
2023-01-03T21:08:55.602Z,28.30
2023-01-03T21:11:30.988Z,28.30
2023-01-03T21:14:00.964Z,28.20
2023-01-03T21:16:33.978Z,28.20
2023-01-03T21:19:14.294Z,28.20
2023-01-03T21:21:45.593Z,28.20
2023-01-03T21:24:15.923Z,28.20
2023-01-03T21:26:44.398Z,28.20
2023-01-03T21:29:12.959Z,28.20
2023-01-03T21:31:42.841Z,28.20
2023-01-03T21:34:18.428Z,28.20
2023-01-03T21:36:47.477Z,28.20
2023-01-03T21:39:15.932Z,28.20
2023-01-03T21:41:44.441Z,28.20
2023-01-03T21:44:12.747Z,28.10
2023-01-03T21:46:42.607Z,28.10
2023-01-03T21:49:11.061Z,28.10
2023-01-03T21:51:39.447Z,28.10
2023-01-03T21:54:09.220Z,28.20
2023-01-03T21:56:37.631Z,28.20
2023-01-03T21:59:05.907Z,28.20
2023-01-03T22:01:34.417Z,28.20
2023-01-03T22:04:02.954Z,28.20
2023-01-03T22:06:31.434Z,28.20
2023-01-03T22:08:59.994Z,28.20
2023-01-03T22:11:29.126Z,28.20
2023-01-03T22:13:59.752Z,28.10
2023-01-03T22:16:28.188Z,28.00
2023-01-03T22:18:56.619Z,28.00
2023-01-03T22:21:25.072Z,28.00
2023-01-03T22:23:55.015Z,28.00
2023-01-03T22:26:23.500Z,28.00
2023-01-03T22:28:52.042Z,28.00
2023-01-03T22:31:21.568Z,28.00
2023-01-03T22:33:50.557Z,28.00
2023-01-03T22:36:18.860Z,28.00
2023-01-03T22:38:47.259Z,27.90
2023-01-03T22:41:21.998Z,27.90
2023-01-03T22:43:53.808Z,27.90
2023-01-03T22:46:22.376Z,27.90
2023-01-03T22:48:50.612Z,27.90
2023-01-03T22:51:19.110Z,27.90
2023-01-03T22:53:47.506Z,27.90
2023-01-03T22:56:17.829Z,27.80
2023-01-03T22:58:47.178Z,27.80
2023-01-03T23:01:18.463Z,27.70
2023-01-03T23:03:48.084Z,27.70
2023-01-03T23:06:19.440Z,27.80
2023-01-03T23:08:50.969Z,27.80
2023-01-03T23:11:22.243Z,27.80
2023-01-03T23:13:50.434Z,27.70
2023-01-03T23:16:18.794Z,27.80
2023-01-03T23:18:47.134Z,27.70
2023-01-03T23:21:15.486Z,27.80
2023-01-03T23:23:43.714Z,27.70
2023-01-03T23:26:12.205Z,27.70
2023-01-03T23:28:40.416Z,27.70
2023-01-03T23:31:08.836Z,27.70
2023-01-03T23:33:37.672Z,27.70
2023-01-03T23:36:07.567Z,27.60
2023-01-03T23:38:36.246Z,27.60
2023-01-03T23:41:08.402Z,27.50
2023-01-03T23:43:37.151Z,27.50
2023-01-03T23:46:07.344Z,27.40
2023-01-03T23:48:35.960Z,27.40
2023-01-03T23:51:09.457Z,27.30
2023-01-03T23:53:40.255Z,27.20
2023-01-03T23:56:13.166Z,27.10
2023-01-03T23:58:41.853Z,27.20
